createdAt,value
2023-04-21T00:01:26.303Z,82.05
2023-04-21T00:03:58.369Z,79.57
2023-04-21T00:06:29.178Z,79.35
2023-04-21T00:08:59.624Z,81.40
2023-04-21T00:11:30.432Z,79.03
2023-04-21T00:14:01.372Z,78.63
2023-04-21T00:16:32.019Z,81.10
2023-04-21T00:19:03.151Z,83.05
2023-04-21T00:21:34.220Z,82.00
2023-04-21T00:26:35.762Z,81.57
2023-04-21T00:31:37.333Z,81.57
2023-04-21T00:34:08.703Z,76.65
2023-04-21T00:36:39.608Z,81.85
2023-04-21T00:39:10.168Z,80.65
2023-04-21T00:41:42.818Z,80.30
2023-04-21T00:44:14.132Z,80.90
2023-04-21T00:49:18.784Z,78.78
2023-04-21T00:51:49.450Z,79.95
2023-04-21T00:54:20.730Z,80.77
2023-04-21T00:56:51.655Z,79.40
2023-04-21T00:59:22.320Z,80.57
2023-04-21T01:01:52.910Z,77.43
2023-04-21T01:04:25.333Z,75.53
2023-04-21T01:06:56.203Z,78.20
2023-04-21T01:09:27.016Z,77.47
2023-04-21T01:12:24.039Z,77.72
2023-04-21T01:14:55.114Z,75.45
2023-04-21T01:17:25.701Z,75.95
2023-04-21T01:19:58.811Z,76.67
2023-04-21T01:22:29.740Z,76.82
2023-04-21T01:25:00.591Z,78.00
2023-04-21T01:27:30.832Z,77.55
2023-04-21T01:30:01.203Z,78.90
2023-04-21T01:32:33.709Z,75.47
2023-04-21T01:35:04.636Z,76.50
2023-04-21T01:37:36.680Z,75.35
2023-04-21T01:40:10.009Z,75.68
2023-04-21T01:42:43.214Z,77.53
2023-04-21T01:45:14.975Z,76.88
2023-04-21T01:47:45.632Z,76.97
2023-04-21T01:50:16.778Z,75.05
2023-04-21T01:52:47.155Z,74.97
2023-04-21T01:55:18.531Z,75.75
2023-04-21T01:57:48.700Z,75.70
2023-04-21T02:00:19.378Z,75.38
2023-04-21T02:02:51.135Z,71.35
2023-04-21T02:05:21.707Z,72.80
2023-04-21T02:07:51.950Z,73.40
2023-04-21T02:10:24.613Z,76.18
2023-04-21T02:12:54.739Z,77.22
2023-04-21T02:15:24.871Z,77.60
2023-04-21T02:17:55.001Z,75.00
2023-04-21T02:20:28.735Z,75.35
2023-04-21T02:22:59.041Z,75.57
2023-04-21T02:25:32.186Z,77.07
2023-04-21T02:28:02.523Z,75.10
2023-04-21T02:30:32.819Z,75.37
2023-04-21T02:33:03.209Z,74.00
2023-04-21T02:35:36.104Z,75.63
2023-04-21T02:38:09.693Z,76.45
2023-04-21T02:40:40.306Z,70.55
2023-04-21T02:43:11.019Z,75.57
2023-04-21T02:45:41.292Z,74.95
2023-04-21T02:48:12.190Z,75.47
2023-04-21T02:50:42.662Z,72.57
2023-04-21T02:53:12.847Z,74.93
2023-04-21T02:55:43.264Z,75.82
2023-04-21T02:58:13.895Z,74.90
2023-04-21T03:00:44.974Z,70.43
2023-04-21T03:03:15.612Z,71.70
2023-04-21T03:05:45.914Z,74.20
2023-04-21T03:08:16.316Z,73.40
2023-04-21T03:10:46.637Z,70.50
2023-04-21T03:13:16.977Z,73.83
2023-04-21T03:15:47.545Z,71.00
2023-04-21T03:18:19.908Z,73.10
2023-04-21T03:20:50.356Z,73.65
2023-04-21T03:23:20.726Z,77.22
2023-04-21T03:25:51.082Z,73.10
2023-04-21T03:28:21.896Z,71.78
2023-04-21T03:30:52.224Z,73.45
2023-04-21T03:33:22.585Z,73.50
2023-04-21T03:35:53.367Z,73.72
2023-04-21T03:38:23.697Z,70.25
2023-04-21T03:40:53.797Z,73.38
2023-04-21T03:43:24.646Z,75.50
2023-04-21T03:45:55.012Z,70.57
2023-04-21T03:48:25.210Z,72.67
2023-04-21T03:50:55.420Z,74.20
2023-04-21T03:53:25.820Z,73.07
2023-04-21T03:55:56.175Z,74.17
2023-04-21T03:58:26.590Z,71.90
2023-04-21T04:00:56.989Z,71.53
2023-04-21T04:03:27.400Z,74.00
2023-04-21T04:05:58.591Z,73.83
2023-04-21T04:08:28.919Z,73.28
2023-04-21T04:10:59.115Z,72.25
2023-04-21T04:13:30.031Z,72.03
2023-04-21T04:16:01.364Z,73.47
2023-04-21T04:18:31.583Z,73.50
2023-04-21T04:21:01.736Z,71.13
2023-04-21T04:23:31.915Z,71.10
2023-04-21T04:26:02.176Z,71.97
2023-04-21T04:28:33.241Z,70.18
2023-04-21T04:31:05.391Z,71.13
2023-04-21T04:33:35.612Z,69.18
2023-04-21T04:36:06.590Z,66.93
2023-04-21T04:38:39.828Z,73.00
2023-04-21T04:41:11.579Z,70.63
2023-04-21T04:43:41.917Z,66.30
2023-04-21T04:46:15.341Z,73.20
2023-04-21T04:48:45.583Z,73.40
2023-04-21T04:51:16.043Z,74.23
2023-04-21T04:53:46.387Z,73.50
2023-04-21T04:56:16.780Z,73.20
2023-04-21T04:58:49.342Z,71.15
2023-04-21T05:01:20.409Z,73.10
2023-04-21T05:03:51.452Z,73.53
2023-04-21T05:08:51.672Z,72.60
2023-04-21T05:11:21.960Z,69.90
2023-04-21T05:13:52.175Z,71.43
2023-04-21T05:16:22.584Z,69.60
2023-04-21T05:18:56.309Z,66.90
2023-04-21T05:21:30.695Z,68.68
2023-04-21T05:24:01.924Z,63.63
2023-04-21T05:26:32.703Z,68.28
2023-04-21T05:29:03.544Z,67.88
2023-04-21T05:31:33.922Z,67.40
2023-04-21T05:34:04.264Z,68.67
2023-04-21T05:36:34.905Z,69.80
2023-04-21T05:39:05.225Z,68.47
2023-04-21T05:41:35.654Z,70.80
2023-04-21T05:44:05.931Z,63.70
2023-04-21T05:46:37.350Z,60.80
2023-04-21T05:49:07.670Z,62.25
2023-04-21T05:51:38.162Z,59.33
2023-04-21T05:54:08.469Z,61.53
2023-04-21T05:56:38.950Z,60.20
2023-04-21T05:59:09.545Z,60.25
2023-04-21T06:01:40.100Z,59.65
2023-04-21T06:04:10.626Z,59.97
2023-04-21T06:06:41.086Z,58.97
2023-04-21T06:09:11.193Z,58.38
2023-04-21T06:11:41.456Z,59.97
2023-04-21T06:14:11.701Z,59.67
2023-04-21T06:16:42.022Z,57.53
2023-04-21T06:19:12.233Z,58.53
2023-04-21T06:21:42.617Z,59.60
2023-04-21T06:24:12.955Z,57.57
2023-04-21T06:26:43.218Z,58.80
2023-04-21T06:29:13.549Z,57.92
2023-04-21T06:31:43.914Z,62.10
2023-04-21T06:34:14.175Z,61.27
2023-04-21T06:36:44.418Z,63.58
2023-04-21T06:39:14.597Z,65.63
2023-04-21T06:41:44.659Z,61.25
2023-04-21T06:44:16.520Z,61.15
2023-04-21T06:46:46.826Z,61.63
2023-04-21T06:49:17.453Z,63.90
2023-04-21T06:51:48.718Z,61.17
2023-04-21T06:54:19.340Z,63.10
2023-04-21T06:56:49.668Z,62.50
2023-04-21T06:59:20.772Z,61.90
2023-04-21T07:04:24.940Z,61.50
2023-04-21T07:06:55.254Z,60.33
2023-04-21T07:09:25.545Z,58.83
2023-04-21T07:11:55.850Z,58.00
2023-04-21T07:14:25.918Z,59.83
2023-04-21T07:16:57.500Z,60.70
2023-04-21T07:19:28.394Z,57.20
2023-04-21T07:24:28.518Z,57.30
2023-04-21T07:26:58.745Z,58.95
2023-04-21T07:29:29.333Z,58.17
2023-04-21T07:32:00.864Z,58.20
2023-04-21T07:34:31.129Z,59.13
2023-04-21T07:37:01.415Z,57.97
2023-04-21T07:39:31.590Z,56.70
2023-04-21T07:42:01.953Z,59.22
2023-04-21T07:44:32.192Z,58.50
2023-04-21T07:47:02.492Z,56.97
2023-04-21T07:49:32.896Z,56.33
2023-04-21T07:52:03.248Z,59.67
2023-04-21T07:54:33.808Z,61.10
2023-04-21T07:57:05.063Z,60.37
2023-04-21T08:02:05.454Z,58.25
2023-04-21T08:04:35.897Z,60.60
2023-04-21T08:07:06.612Z,57.85
2023-04-21T08:09:37.423Z,59.08
2023-04-21T08:12:07.751Z,60.42
2023-04-21T08:14:38.268Z,58.77
2023-04-21T08:17:08.746Z,60.90
2023-04-21T08:19:39.093Z,63.37
2023-04-21T08:22:09.486Z,65.07
2023-04-21T08:24:39.786Z,67.97
2023-04-21T08:27:10.097Z,67.83
2023-04-21T08:29:40.208Z,69.10
2023-04-21T08:32:10.598Z,65.90
2023-04-21T08:34:41.007Z,69.50
2023-04-21T08:37:11.352Z,66.53
2023-04-21T08:39:41.763Z,66.70
2023-04-21T08:42:12.654Z,65.88
2023-04-21T08:47:16.072Z,60.90
2023-04-21T08:49:49.546Z,60.58
2023-04-21T08:52:20.747Z,59.60
2023-04-21T08:54:54.372Z,58.63
2023-04-21T08:57:24.904Z,60.20
2023-04-21T08:59:55.203Z,58.63
2023-04-21T09:02:25.431Z,58.63
2023-04-21T09:04:58.127Z,56.07
2023-04-21T09:07:37.429Z,57.08
2023-04-21T09:10:09.267Z,55.60
2023-04-21T09:12:43.387Z,55.00
2023-04-21T09:15:15.030Z,56.67
2023-04-21T09:17:49.001Z,54.47
2023-04-21T09:20:24.125Z,53.60
2023-04-21T09:22:54.937Z,55.03
2023-04-21T09:25:25.595Z,52.72
2023-04-21T09:27:58.471Z,52.92
2023-04-21T09:30:28.854Z,51.97
2023-04-21T09:33:01.054Z,54.92
2023-04-21T09:35:43.024Z,52.92
2023-04-21T09:38:15.336Z,53.15
2023-04-21T09:40:45.612Z,53.22
2023-04-21T09:43:16.202Z,49.10
2023-04-21T09:45:46.693Z,51.43
2023-04-21T09:48:22.284Z,49.67
2023-04-21T09:51:22.988Z,50.88
2023-04-21T09:53:45.037Z,52.70
2023-04-21T09:56:17.069Z,50.03
2023-04-21T09:58:51.161Z,51.63
2023-04-21T10:01:23.287Z,50.10
2023-04-21T10:03:54.186Z,50.45
2023-04-21T10:06:25.645Z,50.63
2023-04-21T10:09:00.426Z,48.90
2023-04-21T10:11:30.918Z,47.88
2023-04-21T10:14:01.486Z,49.00
2023-04-21T10:16:32.021Z,48.92
2023-04-21T10:19:02.344Z,48.83
2023-04-21T10:21:32.670Z,51.53
2023-04-21T10:24:02.753Z,49.88
2023-04-21T10:26:38.852Z,48.97
2023-04-21T10:29:11.274Z,50.00
2023-04-21T10:31:46.828Z,48.08
2023-04-21T10:34:18.144Z,50.15
2023-04-21T10:36:49.318Z,46.97
2023-04-21T10:39:36.035Z,45.90
2023-04-21T10:42:25.525Z,49.10
2023-04-21T10:45:01.476Z,48.97
2023-04-21T10:47:46.575Z,47.38
2023-04-21T10:51:00.317Z,45.78
2023-04-21T10:53:46.555Z,46.35
2023-04-21T10:56:17.351Z,45.55
2023-04-21T10:58:47.735Z,46.10
2023-04-21T11:01:18.855Z,48.43
2023-04-21T11:03:49.584Z,44.85
2023-04-21T11:06:20.980Z,44.28
2023-04-21T11:09:00.846Z,44.45
2023-04-21T11:11:31.204Z,44.47
2023-04-21T11:14:05.290Z,46.20
2023-04-21T11:16:37.183Z,46.35
2023-04-21T11:19:07.410Z,46.58
2023-04-21T11:21:37.551Z,48.55
2023-04-21T11:24:08.038Z,46.33
2023-04-21T11:26:45.069Z,46.25
2023-04-21T11:29:15.445Z,46.20
2023-04-21T11:31:52.677Z,45.53
2023-04-21T11:34:27.840Z,44.63
2023-04-21T11:36:58.829Z,45.05
2023-04-21T11:39:29.053Z,47.47
2023-04-21T11:41:59.484Z,45.50
2023-04-21T11:44:42.041Z,45.55
2023-04-21T11:47:23.730Z,46.03
2023-04-21T11:50:02.189Z,47.70
2023-04-21T11:52:39.701Z,47.83
2023-04-21T11:55:23.457Z,46.45
2023-04-21T11:57:56.591Z,47.92
2023-04-21T12:00:27.434Z,46.63
2023-04-21T12:02:59.234Z,46.65
2023-04-21T12:05:38.568Z,47.30
2023-04-21T12:08:09.846Z,46.58
2023-04-21T12:10:40.127Z,45.67
2023-04-21T12:13:10.568Z,46.93
2023-04-21T12:15:40.910Z,46.97
2023-04-21T12:18:16.642Z,47.03
2023-04-21T12:20:54.701Z,48.20
2023-04-21T12:23:24.915Z,46.25
2023-04-21T12:25:55.277Z,46.25
2023-04-21T12:28:25.846Z,46.57
2023-04-21T12:30:56.031Z,47.63
2023-04-21T12:33:27.600Z,45.83
2023-04-21T12:35:58.068Z,46.85
2023-04-21T12:38:28.635Z,46.80
2023-04-21T12:40:58.914Z,47.60
2023-04-21T12:43:29.304Z,45.45
2023-04-21T12:45:59.707Z,47.20
2023-04-21T12:48:30.044Z,47.37
2023-04-21T12:51:00.196Z,49.25
2023-04-21T12:53:31.277Z,46.40
2023-04-21T12:56:05.060Z,51.50
2023-04-21T12:58:35.865Z,53.08
2023-04-21T13:03:18.520Z,48.60
2023-04-21T13:05:48.960Z,50.57
2023-04-21T13:08:19.692Z,57.97
2023-04-21T13:10:50.021Z,54.90
2023-04-21T13:13:20.507Z,57.37
2023-04-21T13:15:51.629Z,52.27
2023-04-21T13:18:21.949Z,54.88
2023-04-21T13:20:52.444Z,60.20
2023-04-21T13:23:22.831Z,58.93
2023-04-21T13:25:53.338Z,57.50
2023-04-21T13:28:23.786Z,56.00
2023-04-21T13:30:55.706Z,63.83
2023-04-21T13:33:26.757Z,60.55
2023-04-21T13:35:57.100Z,64.00
2023-04-21T13:38:28.062Z,63.60
2023-04-21T13:40:59.302Z,63.60
2023-04-21T13:43:29.743Z,63.85
2023-04-21T13:46:00.624Z,63.10
2023-04-21T13:51:03.311Z,64.97
2023-04-21T13:56:03.923Z,62.72
2023-04-21T13:58:34.876Z,61.77
2023-04-21T14:01:06.347Z,62.75
2023-04-21T14:03:36.905Z,66.63
2023-04-21T14:06:07.563Z,64.63
2023-04-21T14:08:38.601Z,59.60
2023-04-21T14:11:08.989Z,64.10
2023-04-21T14:13:44.913Z,80.03
2023-04-21T14:16:18.707Z,72.25
2023-04-21T14:18:49.844Z,83.35
2023-04-21T14:21:20.038Z,75.60
2023-04-21T14:23:50.556Z,85.63
2023-04-21T14:26:21.270Z,75.03
2023-04-21T14:28:53.157Z,80.20
2023-04-21T14:31:23.845Z,64.70
2023-04-21T14:33:54.194Z,64.47
2023-04-21T14:36:24.537Z,64.97
2023-04-21T14:38:54.751Z,62.33
2023-04-21T14:41:24.829Z,66.57
2023-04-21T14:43:57.258Z,67.43
2023-04-21T14:46:28.031Z,68.28
2023-04-21T14:49:00.044Z,65.55
2023-04-21T14:51:30.782Z,65.97
2023-04-21T14:54:01.512Z,64.82
2023-04-21T14:56:31.878Z,62.42
2023-04-21T14:59:02.345Z,65.37
2023-04-21T15:01:33.187Z,64.17
2023-04-21T15:04:04.313Z,62.08
2023-04-21T15:06:34.946Z,63.13
2023-04-21T15:09:06.586Z,65.23
2023-04-21T15:11:37.396Z,65.75
2023-04-21T15:14:07.917Z,66.70
2023-04-21T15:16:38.471Z,67.37
2023-04-21T15:19:08.928Z,65.87
2023-04-21T15:21:39.277Z,65.93
2023-04-21T15:24:09.998Z,67.75
2023-04-21T15:26:40.509Z,68.25
2023-04-21T15:29:10.739Z,67.80
2023-04-21T15:31:41.074Z,69.20
2023-04-21T15:34:11.559Z,68.80
2023-04-21T15:36:41.681Z,69.90
2023-04-21T15:39:17.405Z,69.57
2023-04-21T15:41:47.725Z,67.85
2023-04-21T15:44:17.949Z,68.95
2023-04-21T15:46:48.276Z,73.37
2023-04-21T15:49:18.713Z,70.63
2023-04-21T15:51:49.079Z,70.87
2023-04-21T15:54:19.513Z,71.00
2023-04-21T15:56:49.792Z,71.87
2023-04-21T15:59:20.260Z,70.63
2023-04-21T16:01:50.598Z,70.53
2023-04-21T16:04:21.434Z,71.60
2023-04-21T16:06:52.379Z,70.85
2023-04-21T16:09:23.954Z,70.18
2023-04-21T16:11:54.476Z,69.70
2023-04-21T16:14:25.418Z,69.33
2023-04-21T16:19:26.000Z,68.43
2023-04-21T16:21:57.505Z,67.90
2023-04-21T16:24:28.254Z,67.60
2023-04-21T16:27:00.051Z,68.97
2023-04-21T16:29:30.454Z,70.43
2023-04-21T16:32:01.006Z,69.83
2023-04-21T16:34:31.469Z,68.50
2023-04-21T16:37:01.996Z,64.37
2023-04-21T16:39:32.256Z,69.07
2023-04-21T16:42:02.739Z,69.35
2023-04-21T16:44:33.271Z,68.32
2023-04-21T16:47:03.922Z,63.30
2023-04-21T16:49:34.213Z,67.87
2023-04-21T16:52:04.606Z,69.17
2023-04-21T16:54:34.893Z,68.68
2023-04-21T16:57:05.382Z,68.43
2023-04-21T16:59:35.832Z,66.20
2023-04-21T17:02:06.196Z,68.67
2023-04-21T17:04:36.541Z,67.60
2023-04-21T17:07:06.850Z,66.83
2023-04-21T17:09:37.144Z,66.72
2023-04-21T17:12:07.869Z,67.10
2023-04-21T17:14:38.933Z,65.78
2023-04-21T17:17:09.686Z,66.45
2023-04-21T17:19:40.055Z,68.87
2023-04-21T17:22:10.150Z,68.32
2023-04-21T17:24:51.909Z,67.88
2023-04-21T17:27:23.334Z,68.18
2023-04-21T17:29:53.816Z,67.53
2023-04-21T17:32:24.780Z,65.47
2023-04-21T17:34:55.408Z,66.47
2023-04-21T17:37:25.901Z,65.07
2023-04-21T17:39:56.484Z,66.20
2023-04-21T17:42:26.902Z,64.73
2023-04-21T17:44:57.327Z,68.37
2023-04-21T17:47:27.755Z,64.70
2023-04-21T17:49:59.005Z,64.37
2023-04-21T17:52:29.368Z,66.47
2023-04-21T17:54:59.570Z,64.15
2023-04-21T17:57:30.060Z,66.78
2023-04-21T18:00:00.893Z,63.20
2023-04-21T18:02:31.372Z,64.25
2023-04-21T18:05:01.805Z,63.93
2023-04-21T18:07:32.136Z,65.90
2023-04-21T18:10:02.800Z,66.13
2023-04-21T18:12:33.047Z,63.60
2023-04-21T18:15:03.844Z,65.97
2023-04-21T18:17:34.553Z,65.28
2023-04-21T18:20:05.032Z,65.97
2023-04-21T18:22:37.764Z,65.43
2023-04-21T18:25:08.597Z,64.20
2023-04-21T18:27:38.677Z,64.65
2023-04-21T18:30:11.179Z,65.97
2023-04-21T18:32:42.763Z,64.15
2023-04-21T18:35:13.058Z,66.38
2023-04-21T18:37:43.285Z,67.20
2023-04-21T18:40:14.095Z,63.25
2023-04-21T18:42:44.413Z,63.53
2023-04-21T18:45:14.856Z,64.38
2023-04-21T18:47:45.113Z,63.87
2023-04-21T18:50:15.481Z,64.50
2023-04-21T18:52:45.768Z,64.33
2023-04-21T18:55:17.693Z,64.65
2023-04-21T18:57:47.974Z,63.58
2023-04-21T19:00:18.534Z,63.93
2023-04-21T19:02:50.997Z,63.93
2023-04-21T19:05:21.439Z,64.75
2023-04-21T19:07:51.768Z,64.37
2023-04-21T19:10:22.132Z,63.53
2023-04-21T19:12:52.540Z,63.00
2023-04-21T19:15:23.741Z,63.20
2023-04-21T19:20:24.192Z,63.17
2023-04-21T19:22:54.462Z,63.42
2023-04-21T19:25:24.749Z,62.17
2023-04-21T19:27:54.997Z,62.10
2023-04-21T19:30:25.462Z,66.70
2023-04-21T19:32:56.615Z,61.80
2023-04-21T19:35:26.969Z,60.78
2023-04-21T19:37:57.033Z,64.28
2023-04-21T19:40:27.433Z,64.22
2023-04-21T19:42:58.139Z,64.37
2023-04-21T19:45:28.860Z,62.63
2023-04-21T19:47:59.103Z,62.38
2023-04-21T19:50:29.885Z,62.03
2023-04-21T19:53:00.169Z,64.63
2023-04-21T19:55:31.110Z,63.23
2023-04-21T19:58:01.861Z,63.85
2023-04-21T20:00:32.266Z,63.38
2023-04-21T20:03:02.639Z,62.38
2023-04-21T20:05:32.776Z,64.60
2023-04-21T20:08:03.101Z,63.13
2023-04-21T20:10:33.441Z,60.70
2023-04-21T20:13:03.761Z,62.70
2023-04-21T20:15:34.784Z,62.05
2023-04-21T20:20:35.993Z,63.13
2023-04-21T20:23:06.571Z,63.28
2023-04-21T20:25:36.763Z,64.03
2023-04-21T20:28:06.946Z,63.88
2023-04-21T20:30:37.062Z,62.45
2023-04-21T20:33:07.512Z,62.80
2023-04-21T20:35:41.768Z,63.63
2023-04-21T20:38:12.710Z,62.08
2023-04-21T20:40:43.001Z,64.40
2023-04-21T20:43:15.272Z,64.13
2023-04-21T20:45:46.947Z,63.15
2023-04-21T20:48:17.208Z,65.18
2023-04-21T20:50:49.133Z,65.38
2023-04-21T20:53:21.504Z,64.82
2023-04-21T20:55:53.011Z,64.73
2023-04-21T20:58:23.373Z,66.03
2023-04-21T21:00:53.703Z,65.10
2023-04-21T21:03:24.111Z,65.27
2023-04-21T21:05:54.336Z,66.30
2023-04-21T21:08:24.580Z,64.97
2023-04-21T21:10:54.738Z,66.63
2023-04-21T21:13:25.117Z,64.53
2023-04-21T21:15:55.426Z,64.55
2023-04-21T21:18:25.660Z,64.90
2023-04-21T21:20:55.720Z,65.22
2023-04-21T21:23:25.826Z,66.30
2023-04-21T21:25:56.048Z,65.55
2023-04-21T21:28:26.220Z,65.67
2023-04-21T21:30:56.447Z,64.18
2023-04-21T21:33:26.614Z,66.60
2023-04-21T21:35:56.734Z,66.88
2023-04-21T21:38:27.075Z,67.30
2023-04-21T21:40:57.373Z,65.50
2023-04-21T21:43:27.694Z,64.72
2023-04-21T21:45:58.156Z,65.85
2023-04-21T21:48:28.370Z,64.63
2023-04-21T21:50:58.768Z,67.20
2023-04-21T21:53:29.084Z,66.20
2023-04-21T21:55:59.508Z,64.65
2023-04-21T21:58:30.406Z,65.38
2023-04-21T22:03:31.122Z,66.72
2023-04-21T22:06:01.736Z,65.05
2023-04-21T22:08:32.048Z,65.50
2023-04-21T22:11:03.704Z,69.77
2023-04-21T22:13:34.413Z,70.07
2023-04-21T22:16:04.810Z,66.40
2023-04-21T22:18:35.238Z,68.83
2023-04-21T22:21:05.499Z,72.75
2023-04-21T22:23:35.870Z,75.07
2023-04-21T22:26:06.099Z,69.90
2023-04-21T22:28:36.531Z,73.27
2023-04-21T22:31:07.160Z,72.50
2023-04-21T22:33:37.670Z,73.47
2023-04-21T22:36:09.832Z,73.83
2023-04-21T22:38:40.792Z,74.38
2023-04-21T22:41:11.019Z,74.68
2023-04-21T22:43:41.439Z,66.63
2023-04-21T22:46:11.795Z,71.22
2023-04-21T22:48:42.190Z,69.70
2023-04-21T22:51:12.695Z,66.97
2023-04-21T22:53:44.449Z,69.63
2023-04-21T22:56:15.244Z,68.57
2023-04-21T22:58:45.988Z,67.10
2023-04-21T23:01:16.460Z,71.03
2023-04-21T23:03:46.932Z,68.93
2023-04-21T23:06:17.518Z,69.72
2023-04-21T23:08:48.042Z,67.20
2023-04-21T23:11:18.663Z,68.68
2023-04-21T23:13:49.111Z,69.60
2023-04-21T23:16:19.572Z,69.63
2023-04-21T23:18:49.867Z,67.77
2023-04-21T23:21:20.241Z,74.00
2023-04-21T23:23:50.466Z,70.87
2023-04-21T23:26:20.733Z,70.57
2023-04-21T23:28:51.063Z,71.97
2023-04-21T23:31:22.571Z,71.85
2023-04-21T23:33:52.915Z,70.93
2023-04-21T23:36:23.065Z,70.47
2023-04-21T23:38:53.410Z,71.63
2023-04-21T23:41:24.016Z,74.47
2023-04-21T23:43:54.431Z,74.95
2023-04-21T23:46:24.754Z,75.60
2023-04-21T23:48:55.101Z,77.57
2023-04-21T23:51:25.683Z,84.70
2023-04-21T23:53:56.325Z,79.03
2023-04-21T23:56:26.634Z,77.50
2023-04-21T23:58:57.962Z,75.65
